Maersk Dominica — A8IY4 — position and weather

sailwx.info

Track history (hours):
 
Tides and Currents Weather Stations Pressure Air Temp Water Temp Dewpoint Dewpoint Depression Visibility Wind Speed Wind Dir Waves Ship Positions

Maersk Dominica

Last reported at 2017-Dec-10 15:55 UTC. Time now 2017-Dec-14 02:39 UTC.
Position N 38°48' W 075°03'.

Length 281 m; beam 32.2 m; draft 12.5 m.

Type: Ship (hazmat cat A). MMSI: 636016437.

Date/timePositionNaut miles runAvg speedWind from/ knotsBaromVisibWave heightAir tempDewpointWater temp
2017-Dec-10 15:55N 38°48' W 075°03'3 8.3
2017-Dec-10 15:31N 38°51' W 075°05'815.9
2017-Dec-10 15:00N 38°59' W 075°08'917.7
2017-Dec-10 14:31N 39°07' W 075°13'714.1
2017-Dec-10 14:00N 39°13' W 075°18'1019.3
2017-Dec-10 13:31N 39°20' W 075°25'918.4
2017-Dec-10 13:00N 39°27' W 075°33'714.5
2017-Dec-10 12:31N 39°34' W 075°33'714.3
2017-Dec-10 12:01N 39°41' W 075°31'611.1
2017-Dec-10 11:31N 39°46' W 075°28'4 8.2
2017-Dec-10 11:01N 39°49' W 075°24'4 7.3
2017-Dec-10 10:31N 39°51' W 075°20'4 8.1
2017-Dec-10 10:00N 39°51' W 075°15'4 7.1
2017-Dec-10 09:30N 39°53' W 075°11'2 4.9
2017-Dec-10 09:00N 39°54' W 075°08'0 0.1
2017-Dec-10 08:28N 39°54' W 075°08'0 0.0
2017-Dec-10 07:58N 39°54' W 075°08'0 0.0
2017-Dec-10 07:28N 39°54' W 075°08'0 0.0
2017-Dec-10 06:58N 39°54' W 075°08'0 0.0
2017-Dec-10 06:28N 39°54' W 075°08'0 0.0
2017-Dec-10 05:58N 39°54' W 075°08'0 0.0
2017-Dec-10 05:28N 39°54' W 075°08'0 0.0
2017-Dec-10 04:58N 39°54' W 075°08'0 0.0
2017-Dec-10 04:28N 39°54' W 075°08'0 0.0
2017-Dec-10 03:58N 39°54' W 075°08'0 0.0
2017-Dec-10 03:28N 39°54' W 075°08'0 0.0
2017-Dec-10 02:58N 39°54' W 075°08'0 0.0
2017-Dec-10 02:28N 39°54' W 075°08'0 0.0
2017-Dec-10 01:58N 39°54' W 075°08'0 0.0
2017-Dec-10 01:28N 39°54' W 075°08'0 0.0
2017-Dec-10 00:58N 39°54' W 075°08'0 0.0
2017-Dec-10 00:28N 39°54' W 075°08'0 0.0
2017-Dec-09 23:58N 39°54' W 075°08'0 0.1
2017-Dec-09 23:30N 39°54' W 075°08'2 3.3
2017-Dec-09 23:01N 39°53' W 075°09'3 6.9
2017-Dec-09 22:30N 39°52' W 075°13'4 9.0
2017-Dec-09 22:00N 39°51' W 075°19'5 9.9
2017-Dec-09 21:30N 39°48' W 075°25'5 9.1
2017-Dec-09 21:00N 39°45' W 075°29'5 9.9
2017-Dec-09 20:30N 39°41' W 075°31'510.4
2017-Dec-09 20:01N 39°36' W 075°34'4 8.8
2017-Dec-09 19:31N 39°32' W 075°33'611.9
2017-Dec-09 19:00N 39°26' W 075°32'612.2
2017-Dec-09 18:30N 39°21' W 075°27'815.3
2017-Dec-09 18:01N 39°16' W 075°20'714.7
2017-Dec-09 17:30N 39°09' W 075°15'714.6
2017-Dec-09 17:00N 39°03' W 075°10'714.6
2017-Dec-09 16:31N 38°57' W 075°06'  
2017-Dec-02 14:08N 37°54' W 074°28'210.9
2017-Dec-02 13:56N 37°56' W 074°28'1015.7
2017-Dec-02 13:19N 38°06' W 074°27'3012.8
2017-Dec-02 10:57N 38°31' W 074°48'5 9.6
2017-Dec-02 10:29N 38°35' W 074°51'510.0
2017-Dec-02 09:56N 38°40' W 074°55'4 8.3
2017-Dec-02 09:28N 38°43' W 074°58'4 8.2
2017-Dec-02 08:56N 38°46' W 075°02'6 9.4
2017-Dec-02 08:20N 38°51' W 075°05'615.4
2017-Dec-02 07:56N 38°57' W 075°07'817.2
2017-Dec-02 07:27N 39°05' W 075°11'816.8
2017-Dec-02 06:58N 39°11' W 075°17'611.6
2017-Dec-02 06:29N 39°16' W 075°21'919.2
2017-Dec-02 06:00N 39°23' W 075°29'918.3
2017-Dec-02 05:30N 39°32' W 075°33'816.5
2017-Dec-02 05:00N 39°40' W 075°32'713.9
2017-Dec-02 04:29N 39°46' W 075°28'4 8.6
2017-Dec-02 04:00N 39°49' W 075°24'4 7.3
2017-Dec-02 03:29N 39°51' W 075°20'4 8.6
2017-Dec-02 03:00N 39°51' W 075°14'3 5.7
2017-Dec-02 02:30N 39°53' W 075°11'3 5.2
2017-Dec-02 01:59N 39°54' W 075°08'0 0.3
2017-Dec-02 01:27N 39°54' W 075°08'0 0.0
2017-Dec-02 00:52N 39°54' W 075°08'0 0.0
2017-Dec-02 00:21N 39°54' W 075°08'0 0.0
2017-Dec-01 23:57N 39°54' W 075°08'0 0.0
2017-Dec-01 23:27N 39°54' W 075°08'0 0.0
2017-Dec-01 23:00N 39°54' W 075°08'0 0.0
2017-Dec-01 22:30N 39°54' W 075°08'0 0.0
2017-Dec-01 22:00N 39°54' W 075°08'0 0.0
2017-Dec-01 21:27N 39°54' W 075°08'0 0.0
2017-Dec-01 21:00N 39°54' W 075°08'0 0.0
2017-Dec-01 20:30N 39°54' W 075°08'0 0.0
2017-Dec-01 20:00N 39°54' W 075°08'0 0.0
2017-Dec-01 19:30N 39°54' W 075°08'0 0.0
2017-Dec-01 19:00N 39°54' W 075°08'0 0.0
2017-Dec-01 18:30N 39°54' W 075°08'0 0.0
2017-Dec-01 18:00N 39°54' W 075°08'0 0.0
2017-Dec-01 17:30N 39°54' W 075°08'0 0.0
2017-Dec-01 17:00N 39°54' W 075°08'0 0.0
2017-Dec-01 16:30N 39°54' W 075°08'1 1.3
2017-Dec-01 16:00N 39°53' W 075°08'2 3.9
2017-Dec-01 15:30N 39°53' W 075°11'4 8.1
2017-Dec-01 15:00N 39°51' W 075°15'4 7.9
2017-Dec-01 14:30N 39°51' W 075°20'4 8.0
2017-Dec-01 14:00N 39°48' W 075°25'4 7.7
2017-Dec-01 13:31N 39°46' W 075°29'5 9.3
2017-Dec-01 13:00N 39°42' W 075°31'510.7
2017-Dec-01 12:31N 39°37' W 075°35'510.7
2017-Dec-01 12:00N 39°32' W 075°33'713.3
2017-Dec-01 11:30N 39°26' W 075°31'715.0
2017-Dec-01 11:00N 39°20' W 075°25'714.9
2017-Dec-01 10:30N 39°14' W 075°19'611.9
2017-Dec-01 10:00N 39°09' W 075°15'510.6
2017-Dec-01 09:30N 39°05' W 075°11'713.5
2017-Dec-01 09:00N 38°59' W 075°08'816.0
2017-Dec-01 08:30N 38°51' W 075°04'5 8.9
2017-Dec-01 07:58N 38°47' W 075°01'4 9.1
2017-Dec-01 07:29N 38°44' W 074°57'5 9.3
2017-Dec-01 07:00N 38°41' W 074°53'5 9.3
2017-Dec-01 06:25N 38°37' W 074°49'410.2
2017-Dec-01 06:00N 38°34' W 074°45'611.0
2017-Dec-01 05:30N 38°32' W 074°38'0 0.2
2017-Dec-01 04:58N 38°32' W 074°38'0 0.0
2017-Dec-01 04:22N 38°32' W 074°38'0 0.0
2017-Dec-01 03:49N 38°32' W 074°38'0 0.0
2017-Nov-30 17:01N 38°32' W 074°38'0 0.8
2017-Nov-30 17:00N 38°32' W 074°38'4 6.6
2017-Nov-30 16:25N 38°34' W 074°34'511.8
2017-Nov-30 16:00N 38°37' W 074°29'  
Track history (hours):
 
Tides and Currents Weather Stations Pressure Air Temp Water Temp Dewpoint Dewpoint Depression Visibility Wind Speed Wind Dir Waves Ship Positions

Maersk Dominica

Last reported at 2017-Dec-10 15:55 UTC. Time now 2017-Dec-14 02:39 UTC.
Position N 38°48' W 075°03'.

Length 281 m; beam 32.2 m; draft 12.5 m.

Type: Ship (hazmat cat A). MMSI: 636016437.

Date/timePositionNaut miles runAvg speedWind from/ knotsBaromVisibWave heightAir tempDewpointWater temp
2017-Dec-10 15:55N 38°48' W 075°03'3 8.3
2017-Dec-10 15:31N 38°51' W 075°05'815.9
2017-Dec-10 15:00N 38°59' W 075°08'917.7
2017-Dec-10 14:31N 39°07' W 075°13'714.1
2017-Dec-10 14:00N 39°13' W 075°18'1019.3
2017-Dec-10 13:31N 39°20' W 075°25'918.4
2017-Dec-10 13:00N 39°27' W 075°33'714.5
2017-Dec-10 12:31N 39°34' W 075°33'714.3
2017-Dec-10 12:01N 39°41' W 075°31'611.1
2017-Dec-10 11:31N 39°46' W 075°28'4 8.2
2017-Dec-10 11:01N 39°49' W 075°24'4 7.3
2017-Dec-10 10:31N 39°51' W 075°20'4 8.1
2017-Dec-10 10:00N 39°51' W 075°15'4 7.1
2017-Dec-10 09:30N 39°53' W 075°11'2 4.9
2017-Dec-10 09:00N 39°54' W 075°08'0 0.1
2017-Dec-10 08:28N 39°54' W 075°08'0 0.0
2017-Dec-10 07:58N 39°54' W 075°08'0 0.0
2017-Dec-10 07:28N 39°54' W 075°08'0 0.0
2017-Dec-10 06:58N 39°54' W 075°08'0 0.0
2017-Dec-10 06:28N 39°54' W 075°08'0 0.0
2017-Dec-10 05:58N 39°54' W 075°08'0 0.0
2017-Dec-10 05:28N 39°54' W 075°08'0 0.0
2017-Dec-10 04:58N 39°54' W 075°08'0 0.0
2017-Dec-10 04:28N 39°54' W 075°08'0 0.0
2017-Dec-10 03:58N 39°54' W 075°08'0 0.0
2017-Dec-10 03:28N 39°54' W 075°08'0 0.0
2017-Dec-10 02:58N 39°54' W 075°08'0 0.0
2017-Dec-10 02:28N 39°54' W 075°08'0 0.0
2017-Dec-10 01:58N 39°54' W 075°08'0 0.0
2017-Dec-10 01:28N 39°54' W 075°08'0 0.0
2017-Dec-10 00:58N 39°54' W 075°08'0 0.0
2017-Dec-10 00:28N 39°54' W 075°08'0 0.0
2017-Dec-09 23:58N 39°54' W 075°08'0 0.1
2017-Dec-09 23:30N 39°54' W 075°08'2 3.3
2017-Dec-09 23:01N 39°53' W 075°09'3 6.9
2017-Dec-09 22:30N 39°52' W 075°13'4 9.0
2017-Dec-09 22:00N 39°51' W 075°19'5 9.9
2017-Dec-09 21:30N 39°48' W 075°25'5 9.1
2017-Dec-09 21:00N 39°45' W 075°29'5 9.9
2017-Dec-09 20:30N 39°41' W 075°31'510.4
2017-Dec-09 20:01N 39°36' W 075°34'4 8.8
2017-Dec-09 19:31N 39°32' W 075°33'611.9
2017-Dec-09 19:00N 39°26' W 075°32'612.2
2017-Dec-09 18:30N 39°21' W 075°27'815.3
2017-Dec-09 18:01N 39°16' W 075°20'714.7
2017-Dec-09 17:30N 39°09' W 075°15'714.6
2017-Dec-09 17:00N 39°03' W 075°10'714.6
2017-Dec-09 16:31N 38°57' W 075°06'  
2017-Dec-02 14:08N 37°54' W 074°28'210.9
2017-Dec-02 13:56N 37°56' W 074°28'1015.7
2017-Dec-02 13:19N 38°06' W 074°27'3012.8
2017-Dec-02 10:57N 38°31' W 074°48'5 9.6
2017-Dec-02 10:29N 38°35' W 074°51'510.0
2017-Dec-02 09:56N 38°40' W 074°55'4 8.3
2017-Dec-02 09:28N 38°43' W 074°58'4 8.2
2017-Dec-02 08:56N 38°46' W 075°02'6 9.4
2017-Dec-02 08:20N 38°51' W 075°05'615.4
2017-Dec-02 07:56N 38°57' W 075°07'817.2
2017-Dec-02 07:27N 39°05' W 075°11'816.8
2017-Dec-02 06:58N 39°11' W 075°17'611.6
2017-Dec-02 06:29N 39°16' W 075°21'919.2
2017-Dec-02 06:00N 39°23' W 075°29'918.3
2017-Dec-02 05:30N 39°32' W 075°33'816.5
2017-Dec-02 05:00N 39°40' W 075°32'713.9
2017-Dec-02 04:29N 39°46' W 075°28'4 8.6
2017-Dec-02 04:00N 39°49' W 075°24'4 7.3
2017-Dec-02 03:29N 39°51' W 075°20'4 8.6
2017-Dec-02 03:00N 39°51' W 075°14'3 5.7
2017-Dec-02 02:30N 39°53' W 075°11'3 5.2
2017-Dec-02 01:59N 39°54' W 075°08'0 0.3
2017-Dec-02 01:27N 39°54' W 075°08'0 0.0
2017-Dec-02 00:52N 39°54' W 075°08'0 0.0
2017-Dec-02 00:21N 39°54' W 075°08'0 0.0
2017-Dec-01 23:57N 39°54' W 075°08'0 0.0
2017-Dec-01 23:27N 39°54' W 075°08'0 0.0
2017-Dec-01 23:00N 39°54' W 075°08'0 0.0
2017-Dec-01 22:30N 39°54' W 075°08'0 0.0
2017-Dec-01 22:00N 39°54' W 075°08'0 0.0
2017-Dec-01 21:27N 39°54' W 075°08'0 0.0
2017-Dec-01 21:00N 39°54' W 075°08'0 0.0
2017-Dec-01 20:30N 39°54' W 075°08'0 0.0
2017-Dec-01 20:00N 39°54' W 075°08'0 0.0
2017-Dec-01 19:30N 39°54' W 075°08'0 0.0
2017-Dec-01 19:00N 39°54' W 075°08'0 0.0
2017-Dec-01 18:30N 39°54' W 075°08'0 0.0
2017-Dec-01 18:00N 39°54' W 075°08'0 0.0
2017-Dec-01 17:30N 39°54' W 075°08'0 0.0
2017-Dec-01 17:00N 39°54' W 075°08'0 0.0
2017-Dec-01 16:30N 39°54' W 075°08'1 1.3
2017-Dec-01 16:00N 39°53' W 075°08'2 3.9
2017-Dec-01 15:30N 39°53' W 075°11'4 8.1
2017-Dec-01 15:00N 39°51' W 075°15'4 7.9
2017-Dec-01 14:30N 39°51' W 075°20'4 8.0
2017-Dec-01 14:00N 39°48' W 075°25'4 7.7
2017-Dec-01 13:31N 39°46' W 075°29'5 9.3
2017-Dec-01 13:00N 39°42' W 075°31'510.7
2017-Dec-01 12:31N 39°37' W 075°35'510.7
2017-Dec-01 12:00N 39°32' W 075°33'713.3
2017-Dec-01 11:30N 39°26' W 075°31'715.0
2017-Dec-01 11:00N 39°20' W 075°25'714.9
2017-Dec-01 10:30N 39°14' W 075°19'611.9
2017-Dec-01 10:00N 39°09' W 075°15'510.6
2017-Dec-01 09:30N 39°05' W 075°11'713.5
2017-Dec-01 09:00N 38°59' W 075°08'816.0
2017-Dec-01 08:30N 38°51' W 075°04'5 8.9
2017-Dec-01 07:58N 38°47' W 075°01'4 9.1
2017-Dec-01 07:29N 38°44' W 074°57'5 9.3
2017-Dec-01 07:00N 38°41' W 074°53'5 9.3
2017-Dec-01 06:25N 38°37' W 074°49'410.2
2017-Dec-01 06:00N 38°34' W 074°45'611.0
2017-Dec-01 05:30N 38°32' W 074°38'0 0.2
2017-Dec-01 04:58N 38°32' W 074°38'0 0.0
2017-Dec-01 04:22N 38°32' W 074°38'0 0.0
2017-Dec-01 03:49N 38°32' W 074°38'0 0.0
2017-Nov-30 17:01N 38°32' W 074°38'0 0.8
2017-Nov-30 17:00N 38°32' W 074°38'4 6.6
2017-Nov-30 16:25N 38°34' W 074°34'511.8
2017-Nov-30 16:00N 38°37' W 074°29'  

Dump ship's entire track history